createdAt,value
2022-08-17T00:01:57.533Z,6.37
2022-08-17T00:04:09.289Z,6.50
2022-08-17T00:06:18.378Z,6.10
2022-08-17T00:08:26.753Z,6.57
2022-08-17T00:10:30.268Z,6.17
2022-08-17T00:12:44.627Z,5.70
2022-08-17T00:14:50.367Z,5.83
2022-08-17T00:16:56.863Z,5.83
2022-08-17T00:19:08.423Z,5.57
2022-08-17T00:21:13.023Z,5.73
2022-08-17T00:23:18.195Z,6.10
2022-08-17T00:25:22.998Z,6.17
2022-08-17T00:27:26.419Z,5.90
2022-08-17T00:29:29.842Z,5.20
2022-08-17T00:31:34.217Z,5.33
2022-08-17T00:33:40.257Z,5.80
2022-08-17T00:35:44.973Z,5.80
2022-08-17T00:37:48.455Z,6.17
2022-08-17T00:39:52.389Z,6.57
2022-08-17T00:41:57.353Z,5.60
2022-08-17T00:44:04.468Z,5.20
2022-08-17T00:46:12.180Z,5.40
2022-08-17T00:48:29.501Z,5.10
2022-08-17T00:50:35.660Z,5.63
2022-08-17T00:52:44.808Z,5.10
2022-08-17T00:54:52.739Z,6.00
2022-08-17T00:57:01.801Z,5.20
2022-08-17T00:59:08.518Z,5.67
2022-08-17T01:01:13.412Z,6.10
2022-08-17T01:03:27.043Z,5.33
2022-08-17T01:05:32.899Z,5.47
2022-08-17T01:07:37.939Z,6.60
2022-08-17T01:09:42.999Z,5.93
2022-08-17T01:11:52.236Z,5.63
2022-08-17T01:13:57.158Z,5.40
2022-08-17T01:16:05.984Z,5.20
2022-08-17T01:18:12.642Z,5.20
2022-08-17T01:20:16.848Z,4.83
2022-08-17T01:22:24.018Z,5.20
2022-08-17T01:24:27.957Z,5.90
2022-08-17T01:26:34.104Z,5.23
2022-08-17T01:28:54.309Z,5.20
2022-08-17T01:31:02.060Z,5.87
2022-08-17T01:33:05.736Z,5.30
2022-08-17T01:35:09.647Z,5.40
2022-08-17T01:37:15.148Z,5.30
2022-08-17T01:39:24.478Z,5.37
2022-08-17T01:41:28.709Z,5.07
2022-08-17T01:43:39.014Z,5.07
2022-08-17T01:45:46.083Z,5.70
2022-08-17T01:47:50.573Z,5.40
2022-08-17T01:49:54.883Z,5.40
2022-08-17T01:51:58.507Z,5.27
2022-08-17T01:54:06.280Z,4.87
2022-08-17T01:56:15.270Z,5.23
2022-08-17T01:58:19.413Z,4.80
2022-08-17T02:00:23.158Z,4.90
2022-08-17T02:02:30.840Z,5.10
2022-08-17T02:04:35.189Z,5.87
2022-08-17T02:06:52.511Z,5.20
2022-08-17T02:09:02.672Z,5.20
2022-08-17T02:11:11.271Z,5.30
2022-08-17T02:13:17.403Z,5.90
2022-08-17T02:15:21.602Z,4.83
2022-08-17T02:17:25.114Z,5.00
2022-08-17T02:19:28.603Z,5.37
2022-08-17T02:21:32.482Z,5.40
2022-08-17T02:23:41.897Z,5.03
2022-08-17T02:25:48.671Z,5.47
2022-08-17T02:27:52.941Z,5.13
2022-08-17T02:29:57.768Z,5.47
2022-08-17T02:32:01.859Z,5.40
2022-08-17T02:34:06.233Z,4.73
2022-08-17T02:36:10.186Z,5.10
2022-08-17T02:38:13.705Z,5.33
2022-08-17T02:40:17.691Z,4.90
2022-08-17T02:42:42.851Z,5.10
2022-08-17T02:44:46.279Z,5.43
2022-08-17T02:46:51.092Z,5.43
2022-08-17T02:48:54.884Z,5.00
2022-08-17T02:50:58.329Z,5.50
2022-08-17T02:53:04.559Z,5.97
2022-08-17T02:55:13.760Z,4.97
2022-08-17T02:57:17.480Z,4.70
2022-08-17T02:59:20.889Z,5.60
2022-08-17T03:01:24.456Z,5.83
2022-08-17T03:03:29.297Z,5.73
2022-08-17T03:05:34.891Z,5.30
2022-08-17T03:07:39.106Z,4.87
2022-08-17T03:09:42.882Z,5.50
2022-08-17T03:11:46.374Z,4.70
2022-08-17T03:13:50.171Z,5.50
2022-08-17T03:15:53.730Z,6.20
2022-08-17T03:17:57.787Z,5.27
2022-08-17T03:20:02.887Z,5.40
2022-08-17T03:22:37.034Z,5.00
2022-08-17T03:24:29.873Z,5.53
2022-08-17T03:26:33.344Z,5.07
2022-08-17T03:28:36.887Z,4.90
2022-08-17T03:30:41.081Z,5.30
2022-08-17T03:32:48.229Z,5.27
2022-08-17T03:34:51.650Z,4.70
2022-08-17T03:36:56.362Z,5.70
2022-08-17T03:38:59.712Z,6.03
2022-08-17T03:41:03.313Z,5.97
2022-08-17T03:43:09.015Z,4.83
2022-08-17T03:45:16.006Z,6.00
2022-08-17T03:47:38.151Z,4.90
2022-08-17T03:50:02.825Z,4.97
2022-08-17T03:52:39.553Z,5.60
2022-08-17T03:55:01.666Z,5.50
2022-08-17T03:57:07.503Z,5.27
2022-08-17T03:59:20.878Z,5.33
2022-08-17T04:01:26.962Z,5.73
2022-08-17T04:03:30.919Z,5.70
2022-08-17T04:05:34.473Z,5.27
2022-08-17T04:07:39.409Z,5.53
2022-08-17T04:09:43.576Z,5.30
2022-08-17T04:11:47.047Z,6.30
2022-08-17T04:13:50.529Z,5.50
2022-08-17T04:15:59.204Z,5.03
2022-08-17T04:18:02.622Z,4.93
2022-08-17T04:20:07.063Z,5.87
2022-08-17T04:22:10.491Z,5.50
2022-08-17T04:24:36.008Z,5.40
2022-08-17T04:26:53.422Z,5.30
2022-08-17T04:28:58.849Z,5.00
2022-08-17T04:31:02.283Z,4.90
2022-08-17T04:33:08.668Z,5.10
2022-08-17T04:35:12.150Z,4.43
2022-08-17T04:37:15.654Z,4.40
2022-08-17T04:39:19.112Z,5.23
2022-08-17T04:41:41.548Z,4.43
2022-08-17T04:43:49.777Z,4.23
2022-08-17T04:45:57.008Z,5.37
2022-08-17T04:48:01.600Z,4.37
2022-08-17T04:50:05.519Z,5.30
2022-08-17T04:52:08.941Z,4.97
2022-08-17T04:54:32.345Z,5.17
2022-08-17T04:56:37.878Z,4.37
2022-08-17T04:58:41.262Z,5.37
2022-08-17T05:00:44.905Z,5.20
2022-08-17T05:02:50.645Z,4.90
2022-08-17T05:04:54.408Z,5.40
2022-08-17T05:06:58.730Z,4.87
2022-08-17T05:09:02.221Z,5.00
2022-08-17T05:11:06.122Z,5.33
2022-08-17T05:13:15.432Z,4.90
2022-08-17T05:15:18.846Z,5.07
2022-08-17T05:17:22.882Z,5.60
2022-08-17T05:19:26.279Z,5.17
2022-08-17T05:21:30.446Z,5.27
2022-08-17T05:23:42.626Z,4.53
2022-08-17T05:25:48.500Z,4.97
2022-08-17T05:27:54.868Z,4.70
2022-08-17T05:29:59.765Z,4.67
2022-08-17T05:32:38.145Z,4.70
2022-08-17T05:34:32.967Z,4.23
2022-08-17T05:36:42.903Z,4.13
2022-08-17T05:38:47.806Z,4.63
2022-08-17T05:40:51.643Z,4.80
2022-08-17T05:43:05.876Z,4.10
2022-08-17T05:45:12.191Z,4.10
2022-08-17T05:47:15.713Z,6.60
2022-08-17T05:49:27.128Z,4.73
2022-08-17T05:51:46.540Z,4.53
2022-08-17T05:53:57.869Z,4.53
2022-08-17T05:56:11.612Z,4.77
2022-08-17T05:58:42.015Z,4.60
2022-08-17T06:00:59.952Z,4.33
2022-08-17T06:03:26.450Z,4.27
2022-08-17T06:05:58.233Z,4.00
2022-08-17T06:08:13.483Z,4.00
2022-08-17T06:10:26.933Z,5.30
2022-08-17T06:12:40.546Z,5.63
2022-08-17T06:14:58.838Z,4.20
2022-08-17T06:17:07.227Z,4.47
2022-08-17T06:19:15.976Z,4.80
2022-08-17T06:21:23.537Z,4.40
2022-08-17T06:23:37.426Z,4.10
2022-08-17T06:25:46.641Z,4.30
2022-08-17T06:27:54.412Z,4.53
2022-08-17T06:30:01.807Z,4.60
2022-08-17T06:32:10.501Z,4.30
2022-08-17T06:34:16.384Z,4.17
2022-08-17T06:36:33.677Z,4.10
2022-08-17T06:38:49.934Z,4.37
2022-08-17T06:41:06.038Z,6.30
2022-08-17T06:43:22.311Z,4.83
2022-08-17T06:45:31.962Z,5.07
2022-08-17T06:47:44.645Z,4.77
2022-08-17T06:49:55.567Z,4.43
2022-08-17T06:52:08.514Z,4.20
2022-08-17T06:54:20.212Z,4.40
2022-08-17T06:56:53.884Z,5.70
2022-08-17T06:58:59.722Z,4.77
2022-08-17T07:01:09.560Z,4.63
2022-08-17T07:03:21.323Z,5.07
2022-08-17T07:05:31.706Z,5.37
2022-08-17T07:07:56.532Z,6.00
2022-08-17T07:10:01.964Z,5.10
2022-08-17T07:12:16.095Z,5.10
2022-08-17T07:14:37.051Z,5.33
2022-08-17T07:16:46.670Z,4.50
2022-08-17T07:18:54.936Z,4.30
2022-08-17T07:21:08.778Z,5.70
2022-08-17T07:23:21.892Z,5.73
2022-08-17T07:25:25.328Z,6.27
2022-08-17T07:27:31.187Z,6.73
2022-08-17T07:29:43.932Z,6.20
2022-08-17T07:31:47.456Z,6.87
2022-08-17T07:34:06.688Z,6.50
2022-08-17T07:36:29.871Z,5.70
2022-08-17T07:38:35.759Z,6.40
2022-08-17T07:40:41.183Z,7.63
2022-08-17T07:43:01.085Z,7.67
2022-08-17T07:45:30.069Z,6.53
2022-08-17T07:47:51.097Z,8.10
2022-08-17T07:49:56.157Z,7.70
2022-08-17T07:52:24.286Z,8.93
2022-08-17T07:54:33.380Z,6.80
2022-08-17T07:56:43.503Z,7.33
2022-08-17T07:58:48.925Z,9.10
2022-08-17T08:01:08.084Z,7.80
2022-08-17T08:03:26.230Z,8.17
2022-08-17T08:05:49.904Z,8.00
2022-08-17T08:07:56.879Z,7.70
2022-08-17T08:10:10.195Z,7.20
2022-08-17T08:12:25.662Z,8.30
2022-08-17T08:14:39.386Z,8.63
2022-08-17T08:16:59.015Z,8.53
2022-08-17T08:19:03.341Z,8.10
2022-08-17T08:21:14.105Z,9.13
2022-08-17T08:23:26.531Z,8.50
2022-08-17T08:25:41.506Z,8.93
2022-08-17T08:27:54.776Z,8.50
2022-08-17T08:30:06.907Z,9.00
2022-08-17T08:32:20.960Z,8.93
2022-08-17T08:34:58.842Z,10.10
2022-08-17T08:37:17.708Z,8.57
2022-08-17T08:39:32.078Z,9.03
2022-08-17T08:41:45.450Z,8.67
2022-08-17T08:44:00.773Z,9.70
2022-08-17T08:46:13.770Z,10.47
2022-08-17T08:48:58.179Z,9.83
2022-08-17T08:51:06.493Z,10.10
2022-08-17T08:53:26.576Z,9.63
2022-08-17T08:55:41.827Z,10.13
2022-08-17T08:57:51.010Z,10.43
2022-08-17T09:00:07.521Z,10.37
2022-08-17T09:02:25.073Z,9.47
2022-08-17T09:05:13.459Z,10.03
2022-08-17T09:07:28.669Z,8.20
2022-08-17T09:09:45.338Z,9.20
2022-08-17T09:12:02.603Z,8.00
2022-08-17T09:14:21.655Z,8.30
2022-08-17T09:16:30.590Z,8.70
2022-08-17T09:18:59.068Z,8.97
2022-08-17T09:21:04.791Z,10.40
2022-08-17T09:23:14.602Z,10.27
2022-08-17T09:25:26.266Z,9.47
2022-08-17T09:27:34.145Z,9.60
2022-08-17T09:29:43.933Z,8.60
2022-08-17T09:31:55.094Z,10.23
2022-08-17T09:34:01.075Z,9.33
2022-08-17T09:36:10.024Z,10.07
2022-08-17T09:38:24.214Z,10.33
2022-08-17T09:40:34.458Z,9.67
2022-08-17T09:42:46.176Z,9.00
2022-08-17T09:44:58.941Z,10.20
2022-08-17T09:47:09.972Z,10.93
2022-08-17T09:49:25.187Z,11.10
2022-08-17T09:51:34.293Z,10.83
2022-08-17T09:53:39.408Z,9.83
2022-08-17T09:56:04.145Z,10.57
2022-08-17T09:58:20.048Z,10.80
2022-08-17T10:00:31.857Z,10.83
2022-08-17T10:02:51.584Z,10.60
2022-08-17T10:05:02.315Z,10.60
2022-08-17T10:07:13.320Z,10.40
2022-08-17T10:09:26.311Z,10.73
2022-08-17T10:11:54.122Z,11.03
2022-08-17T10:14:24.083Z,11.43
2022-08-17T10:16:41.195Z,10.57
2022-08-17T10:18:50.627Z,11.37
2022-08-17T10:21:16.580Z,11.50
2022-08-17T10:23:46.002Z,12.03
2022-08-17T10:26:13.098Z,10.27
2022-08-17T10:28:28.925Z,11.03
2022-08-17T10:30:37.906Z,12.20
2022-08-17T10:32:49.625Z,10.60
2022-08-17T10:35:17.091Z,10.97
2022-08-17T10:37:44.126Z,10.50
2022-08-17T10:39:54.088Z,11.97
2022-08-17T10:42:01.657Z,11.73
2022-08-17T10:44:39.217Z,11.03
2022-08-17T10:46:54.252Z,12.73
2022-08-17T10:49:39.679Z,13.33
2022-08-17T10:51:43.617Z,12.23
2022-08-17T10:54:00.421Z,13.10
2022-08-17T10:56:21.742Z,11.03
2022-08-17T10:58:28.582Z,11.97
2022-08-17T11:00:59.660Z,10.87
2022-08-17T11:03:16.024Z,10.77
2022-08-17T11:05:50.281Z,11.00
2022-08-17T11:08:07.956Z,9.73
2022-08-17T11:10:34.347Z,9.60
2022-08-17T11:12:51.474Z,10.93
2022-08-17T11:15:04.829Z,11.57
2022-08-17T11:17:21.197Z,11.13
2022-08-17T11:20:30.680Z,11.73
2022-08-17T11:23:07.426Z,11.10
2022-08-17T11:25:16.053Z,10.50
2022-08-17T11:27:27.183Z,11.80
2022-08-17T11:29:36.686Z,12.93
2022-08-17T11:31:44.993Z,13.60
2022-08-17T11:34:04.487Z,12.40
2022-08-17T11:36:18.040Z,12.70
2022-08-17T11:38:31.239Z,12.13
2022-08-17T11:40:47.332Z,12.40
2022-08-17T11:43:04.776Z,11.80
2022-08-17T11:45:31.764Z,13.00
2022-08-17T11:48:27.623Z,12.60
2022-08-17T11:51:06.239Z,12.20
2022-08-17T11:53:48.226Z,13.63
2022-08-17T11:56:08.051Z,13.03
2022-08-17T11:58:40.039Z,14.63
2022-08-17T12:00:57.489Z,12.50
2022-08-17T12:03:24.777Z,13.77
2022-08-17T12:05:35.053Z,13.90
2022-08-17T12:07:43.311Z,14.40
2022-08-17T12:09:50.600Z,13.27
2022-08-17T12:12:12.862Z,14.07
2022-08-17T12:14:40.118Z,13.60
2022-08-17T12:17:00.174Z,13.27
2022-08-17T12:19:06.036Z,14.53
2022-08-17T12:21:23.586Z,14.97
2022-08-17T12:23:36.905Z,12.60
2022-08-17T12:25:46.389Z,15.37
2022-08-17T12:28:05.571Z,13.13
2022-08-17T12:30:14.459Z,16.43
2022-08-17T12:32:21.092Z,15.77
2022-08-17T12:34:27.577Z,16.80
2022-08-17T12:36:33.064Z,17.60
2022-08-17T12:38:38.901Z,17.90
2022-08-17T12:40:54.902Z,15.03
2022-08-17T12:43:05.069Z,16.07
2022-08-17T12:45:22.770Z,16.60
2022-08-17T12:47:29.487Z,17.33
2022-08-17T12:49:36.003Z,15.40
2022-08-17T12:51:44.227Z,16.30
2022-08-17T12:53:55.430Z,14.87
2022-08-17T12:56:00.625Z,17.53
2022-08-17T12:58:07.382Z,15.57
2022-08-17T13:00:17.686Z,14.90
2022-08-17T13:02:40.111Z,18.90
2022-08-17T13:04:44.135Z,15.97
2022-08-17T13:06:51.198Z,15.67
2022-08-17T13:09:11.484Z,15.70
2022-08-17T13:11:20.664Z,18.60
2022-08-17T13:13:27.868Z,17.30
2022-08-17T13:15:36.840Z,15.63
2022-08-17T13:17:40.418Z,16.27
2022-08-17T13:19:50.503Z,15.63
2022-08-17T13:21:56.724Z,14.87
2022-08-17T13:24:02.321Z,16.47
2022-08-17T13:26:09.382Z,16.60
2022-08-17T13:28:18.879Z,14.77
2022-08-17T13:30:40.662Z,17.17
2022-08-17T13:32:47.127Z,16.87
2022-08-17T13:35:12.198Z,16.63
2022-08-17T13:37:32.678Z,12.77
2022-08-17T13:39:42.656Z,14.00
2022-08-17T13:41:48.015Z,16.93
2022-08-17T13:43:51.417Z,20.40
2022-08-17T13:46:09.705Z,17.43
2022-08-17T13:48:23.580Z,15.87
2022-08-17T13:50:27.131Z,15.90
2022-08-17T13:52:38.887Z,15.20
2022-08-17T13:54:42.514Z,16.23
2022-08-17T13:56:57.597Z,15.70
2022-08-17T13:59:04.598Z,15.47
2022-08-17T14:01:31.989Z,16.20
2022-08-17T14:03:35.827Z,15.83
2022-08-17T14:05:40.478Z,14.83
2022-08-17T14:07:44.000Z,18.40
2022-08-17T14:09:51.066Z,14.20
2022-08-17T14:11:58.072Z,16.60
2022-08-17T14:14:01.587Z,15.83
2022-08-17T14:16:05.541Z,18.07
2022-08-17T14:18:10.480Z,16.43
2022-08-17T14:20:15.247Z,13.17
2022-08-17T14:22:23.713Z,15.77
2022-08-17T14:24:29.465Z,15.30
2022-08-17T14:26:33.146Z,18.07
2022-08-17T14:28:37.039Z,16.13
2022-08-17T14:30:46.530Z,15.10
2022-08-17T14:32:51.786Z,16.50
2022-08-17T14:34:57.732Z,17.00
2022-08-17T14:37:01.147Z,14.97
2022-08-17T14:39:05.277Z,12.53
2022-08-17T14:41:08.764Z,15.80
2022-08-17T14:43:12.738Z,14.93
2022-08-17T14:45:29.862Z,13.30
2022-08-17T14:47:38.550Z,13.30
2022-08-17T14:49:42.414Z,16.90
2022-08-17T14:51:47.722Z,17.83
2022-08-17T14:53:51.493Z,15.93
2022-08-17T14:55:54.904Z,16.80
2022-08-17T14:57:58.349Z,19.23
2022-08-17T15:00:02.771Z,14.90
2022-08-17T15:02:06.931Z,16.17
2022-08-17T15:04:18.559Z,15.00
2022-08-17T15:06:22.675Z,15.60
2022-08-17T15:08:28.281Z,18.23
2022-08-17T15:10:32.435Z,17.60
2022-08-17T15:12:36.592Z,14.60
2022-08-17T15:14:40.049Z,14.60
2022-08-17T15:16:43.501Z,16.10
2022-08-17T15:18:47.084Z,15.90
2022-08-17T15:20:50.799Z,16.03
2022-08-17T15:22:55.216Z,18.03
2022-08-17T15:25:06.593Z,15.77
2022-08-17T15:27:11.431Z,15.47
2022-08-17T15:29:15.559Z,14.63
2022-08-17T15:31:19.412Z,14.50
2022-08-17T15:33:35.709Z,13.80
2022-08-17T15:35:39.134Z,16.20
2022-08-17T15:37:42.616Z,16.83
2022-08-17T15:39:46.123Z,16.27
2022-08-17T15:41:58.781Z,19.73
2022-08-17T15:44:02.615Z,13.80
2022-08-17T15:46:10.808Z,15.10
2022-08-17T15:48:14.672Z,15.37
2022-08-17T15:50:18.314Z,14.87
2022-08-17T15:52:24.618Z,13.60
2022-08-17T15:54:31.620Z,13.50
2022-08-17T15:56:38.227Z,14.77
2022-08-17T15:58:44.222Z,14.23
2022-08-17T16:00:53.317Z,13.03
2022-08-17T16:03:46.861Z,12.80
2022-08-17T16:05:36.128Z,14.50
2022-08-17T16:07:40.861Z,14.90
2022-08-17T16:09:44.567Z,15.13
2022-08-17T16:11:51.952Z,17.40
2022-08-17T16:14:00.288Z,13.23
2022-08-17T16:16:04.365Z,14.03
2022-08-17T16:18:07.796Z,12.93
2022-08-17T16:20:19.662Z,12.77
2022-08-17T16:22:32.507Z,13.50
2022-08-17T16:24:37.121Z,12.50
2022-08-17T16:26:40.531Z,13.80
2022-08-17T16:28:44.051Z,12.53
2022-08-17T16:30:48.882Z,12.10
2022-08-17T16:32:53.556Z,12.70
2022-08-17T16:34:57.059Z,13.50
2022-08-17T16:37:00.516Z,12.70
2022-08-17T16:39:04.720Z,11.63
2022-08-17T16:41:08.160Z,14.50
2022-08-17T16:43:12.098Z,12.53
2022-08-17T16:45:19.250Z,13.70
2022-08-17T16:47:25.087Z,13.93
2022-08-17T16:49:36.238Z,14.87
2022-08-17T16:51:41.430Z,13.20
2022-08-17T16:53:44.884Z,11.93
2022-08-17T16:55:58.449Z,11.53
2022-08-17T16:58:02.414Z,12.70
2022-08-17T17:00:07.473Z,11.83
2022-08-17T17:02:11.730Z,10.50
2022-08-17T17:04:19.495Z,11.33
2022-08-17T17:06:37.359Z,12.03
2022-08-17T17:08:46.683Z,11.97
2022-08-17T17:10:52.642Z,13.00
2022-08-17T17:13:02.530Z,11.93
2022-08-17T17:15:09.180Z,11.87
2022-08-17T17:17:26.190Z,12.13
2022-08-17T17:19:39.065Z,12.23
2022-08-17T17:21:51.741Z,12.37
2022-08-17T17:23:59.792Z,13.17
2022-08-17T17:26:12.662Z,12.27
2022-08-17T17:28:31.189Z,11.70
2022-08-17T17:30:53.785Z,12.90
2022-08-17T17:33:02.868Z,12.00
2022-08-17T17:35:12.070Z,13.50
2022-08-17T17:37:23.738Z,11.90
2022-08-17T17:39:36.284Z,12.63
2022-08-17T17:41:47.141Z,11.20
2022-08-17T17:43:53.986Z,10.23
2022-08-17T17:46:28.085Z,10.30
2022-08-17T17:48:24.744Z,10.80
2022-08-17T17:50:36.264Z,9.60
2022-08-17T17:52:48.073Z,9.33
2022-08-17T17:55:05.286Z,10.00
2022-08-17T17:57:17.622Z,10.03
2022-08-17T17:59:28.681Z,9.13
2022-08-17T18:01:45.828Z,10.30
2022-08-17T18:04:04.712Z,9.90
2022-08-17T18:06:31.632Z,8.30
2022-08-17T18:08:47.780Z,8.53
2022-08-17T18:11:06.234Z,8.10
2022-08-17T18:13:17.983Z,8.47
2022-08-17T18:15:29.490Z,8.53
2022-08-17T18:17:33.435Z,8.60
2022-08-17T18:19:38.865Z,8.47
2022-08-17T18:21:48.412Z,8.33
2022-08-17T18:23:57.288Z,9.23
2022-08-17T18:26:02.326Z,8.93
2022-08-17T18:28:05.939Z,8.37
2022-08-17T18:30:27.027Z,8.57
2022-08-17T18:32:39.080Z,8.60
2022-08-17T18:34:49.935Z,9.60
2022-08-17T18:36:54.751Z,8.87
2022-08-17T18:39:15.549Z,8.50
2022-08-17T18:41:23.651Z,8.60
2022-08-17T18:43:44.202Z,8.10
2022-08-17T18:45:55.247Z,8.73
2022-08-17T18:47:58.940Z,7.77
2022-08-17T18:50:25.483Z,8.80
2022-08-17T18:52:32.548Z,8.60
2022-08-17T18:54:37.322Z,8.60
2022-08-17T18:56:44.069Z,9.63
2022-08-17T18:58:53.122Z,9.20
2022-08-17T19:01:00.257Z,11.63
2022-08-17T19:03:06.449Z,10.07
2022-08-17T19:05:29.923Z,9.20
2022-08-17T19:07:38.108Z,8.67
2022-08-17T19:09:45.130Z,8.50
2022-08-17T19:11:48.646Z,10.93
2022-08-17T19:13:57.758Z,10.70
2022-08-17T19:16:11.674Z,9.50
2022-08-17T19:18:22.701Z,9.80
2022-08-17T19:20:31.913Z,9.83
2022-08-17T19:22:50.146Z,9.00
2022-08-17T19:25:02.764Z,8.17
2022-08-17T19:27:15.120Z,8.73
2022-08-17T19:29:25.762Z,8.37
2022-08-17T19:31:31.898Z,8.93
2022-08-17T19:33:37.452Z,8.30
2022-08-17T19:35:50.278Z,8.20
2022-08-17T19:38:03.805Z,9.00
2022-08-17T19:40:41.692Z,8.23
2022-08-17T19:42:53.661Z,7.23
2022-08-17T19:45:03.227Z,7.47
2022-08-17T19:47:30.463Z,7.80
2022-08-17T19:49:50.619Z,7.40
2022-08-17T19:51:59.231Z,7.60
2022-08-17T19:54:14.118Z,7.33
2022-08-17T19:56:24.037Z,8.03
2022-08-17T19:58:48.646Z,8.40
2022-08-17T20:00:56.068Z,7.00
2022-08-17T20:03:06.209Z,8.20
2022-08-17T20:05:16.613Z,8.20
2022-08-17T20:07:23.304Z,8.20
2022-08-17T20:09:35.498Z,8.40
2022-08-17T20:11:43.053Z,7.20
2022-08-17T20:13:53.230Z,7.70
2022-08-17T20:15:56.673Z,7.87
2022-08-17T20:18:02.171Z,7.47
2022-08-17T20:20:20.689Z,7.50
2022-08-17T20:22:31.761Z,7.77
2022-08-17T20:25:02.700Z,7.10
2022-08-17T20:27:16.254Z,9.47
2022-08-17T20:29:39.464Z,9.60
2022-08-17T20:31:48.875Z,9.87
2022-08-17T20:33:52.270Z,9.30
2022-08-17T20:36:17.069Z,9.60
2022-08-17T20:38:40.590Z,8.93
2022-08-17T20:41:13.210Z,9.00
2022-08-17T20:43:51.742Z,7.57
2022-08-17T20:46:22.058Z,8.13
2022-08-17T20:48:38.284Z,7.87
2022-08-17T20:50:48.169Z,8.03
2022-08-17T20:52:54.146Z,7.77
2022-08-17T20:54:58.229Z,8.70
2022-08-17T20:57:06.128Z,8.20
2022-08-17T20:59:55.177Z,8.83
2022-08-17T21:02:18.295Z,7.73
2022-08-17T21:04:44.838Z,8.70
2022-08-17T21:07:29.044Z,7.60
2022-08-17T21:09:32.580Z,10.53
2022-08-17T21:12:03.948Z,7.90
2022-08-17T21:14:20.507Z,8.13
2022-08-17T21:16:34.320Z,8.03
2022-08-17T21:18:51.512Z,8.40
2022-08-17T21:21:06.609Z,9.07
2022-08-17T21:23:30.600Z,9.07
2022-08-17T21:25:52.817Z,7.97
2022-08-17T21:28:08.249Z,8.80
2022-08-17T21:30:24.591Z,8.27
2022-08-17T21:32:31.311Z,8.27
2022-08-17T21:34:36.998Z,8.50
2022-08-17T21:36:40.523Z,8.40
2022-08-17T21:38:57.698Z,12.27
2022-08-17T21:41:02.281Z,10.37
2022-08-17T21:43:23.579Z,9.10
2022-08-17T21:45:35.044Z,8.70
2022-08-17T21:47:47.487Z,8.87
2022-08-17T21:49:50.983Z,9.10
2022-08-17T21:51:56.869Z,8.90
2022-08-17T21:54:03.877Z,8.90
2022-08-17T21:56:09.060Z,8.10
2022-08-17T21:58:29.842Z,10.00
2022-08-17T22:00:34.646Z,8.50
2022-08-17T22:02:42.684Z,9.33
2022-08-17T22:04:57.631Z,9.20
2022-08-17T22:07:03.469Z,7.90
2022-08-17T22:09:14.288Z,8.40
2022-08-17T22:11:18.513Z,8.50
2022-08-17T22:13:24.104Z,8.70
2022-08-17T22:15:39.801Z,9.27
2022-08-17T22:17:47.570Z,7.33
2022-08-17T22:19:53.208Z,9.10
2022-08-17T22:22:04.153Z,9.00
2022-08-17T22:24:17.974Z,10.20
2022-08-17T22:26:23.594Z,10.07
2022-08-17T22:28:39.578Z,9.80
2022-08-17T22:30:59.531Z,13.47
2022-08-17T22:33:29.696Z,11.10
2022-08-17T22:35:43.974Z,11.47
2022-08-17T22:37:47.875Z,10.30
2022-08-17T22:39:58.726Z,12.10
2022-08-17T22:42:02.488Z,11.90
2022-08-17T22:44:28.211Z,11.30
2022-08-17T22:46:48.668Z,10.60
2022-08-17T22:48:57.613Z,10.23
2022-08-17T22:51:12.578Z,9.07
2022-08-17T22:53:48.717Z,9.67
2022-08-17T22:56:15.457Z,8.70
2022-08-17T22:58:40.635Z,9.90
2022-08-17T23:00:46.411Z,9.70
2022-08-17T23:03:09.588Z,12.40
2022-08-17T23:05:21.551Z,11.03
2022-08-17T23:07:25.082Z,10.53
2022-08-17T23:09:29.875Z,9.63
2022-08-17T23:11:49.307Z,10.83
2022-08-17T23:13:54.945Z,12.17
2022-08-17T23:15:58.379Z,11.50
2022-08-17T23:18:04.570Z,10.50
2022-08-17T23:20:13.077Z,10.00
2022-08-17T23:22:16.605Z,9.77
2022-08-17T23:24:23.796Z,11.07
2022-08-17T23:26:27.650Z,10.60
2022-08-17T23:28:31.132Z,9.50
2022-08-17T23:30:39.326Z,9.90
2022-08-17T23:32:53.322Z,10.13
2022-08-17T23:34:59.155Z,10.73
2022-08-17T23:37:04.448Z,11.00
2022-08-17T23:39:08.726Z,10.10
2022-08-17T23:41:16.330Z,10.67
2022-08-17T23:43:25.426Z,9.97
2022-08-17T23:45:30.913Z,10.90
2022-08-17T23:47:34.762Z,10.40
2022-08-17T23:49:41.312Z,11.20
2022-08-17T23:51:45.735Z,10.27
2022-08-17T23:53:55.464Z,11.70
2022-08-17T23:56:09.605Z,10.70
2022-08-17T23:58:14.364Z,12.00
